Terminal Aerodrome Forecast
Issued by NWS Sterling, VA

Current Version | Previous Version | Graphics & Text | Print | Product List | Glossary On
Versions: 1 2 3 4 5 6 7 8 9 10 11 12 13 14 15 16
000
FTUS41 KLWX 231431 AAA
TAFMRB
TAF AMD
KMRB 231431Z 2315/2412 VRB03KT P6SM FEW150 FEW250
     FM240900 36006KT P6SM FEW080 SCT120
     FM241100 01006KT P6SM SCT060 BKN100=

USA.gov is the U.S. government's official web portal to all federal, state and local government web resources and services.